Time;durP1;ratioP1;P1;durP2;ratioP2;P2;SDS_P1;SDS_P2;PMS_P1;PMS_P2;Temp;Humidity;BMP_temperature;BMP_pressure;BME280_temperature;BME280_humidity;BME280_pressure;Samples;Min_cycle;Max_cycle;Signal;HPM_P1;HPM_P2
2022/07/29 00:00:00;;;;;;;2.25;1.27;;;;;;;21.67;40.69;101589.91;4980172;28;117842;-76
2022/07/29 00:02:27;;;;;;;3.15;1.40;;;;;;;21.66;40.83;101589.06;4984840;28;123920;-76
2022/07/29 00:04:55;;;;;;;5.15;1.13;;;;;;;21.67;40.92;101579.13;4962525;28;123691;-75
2022/07/29 00:07:22;;;;;;;3.22;1.40;;;;;;;21.67;40.91;101573.72;4967287;28;119064;-76
2022/07/29 00:09:49;;;;;;;3.95;1.60;;;;;;;21.65;40.88;101576.53;4968062;28;118508;-76
2022/07/29 00:12:20;;;;;;;2.67;1.15;;;;;;;21.64;40.85;101569.41;4985583;28;123906;-76
2022/07/29 00:14:54;;;;;;;1.97;1.20;;;;;;;21.64;40.70;101573.97;4968164;28;123081;-75
2022/07/29 00:17:22;;;;;;;2.08;1.13;;;;;;;21.63;40.83;101583.06;4968014;28;119947;-75
2022/07/29 00:19:50;;;;;;;3.80;1.50;;;;;;;21.64;40.94;101584.75;4987419;28;119953;-74
2022/07/29 00:22:17;;;;;;;3.05;1.30;;;;;;;21.64;40.77;101576.66;4987142;28;123954;-74
2022/07/29 00:24:46;;;;;;;5.28;1.40;;;;;;;21.66;40.88;101577.41;4988194;28;124580;-76
2022/07/29 00:27:14;;;;;;;3.50;1.02;;;;;;;21.68;40.97;101575.44;4986720;28;96812;-75
2022/07/29 00:29:41;;;;;;;5.20;1.40;;;;;;;21.70;40.99;101571.66;4968387;28;117292;-75
2022/07/29 00:32:08;;;;;;;4.03;1.35;;;;;;;21.72;40.90;101576.91;4986380;28;123927;-75
2022/07/29 00:37:21;;;;;;;;;;;;;;;21.71;40.52;101570.66;4984674;28;118233;-75
2022/07/29 00:39:48;;;;;;;3.95;1.45;;;;;;;21.74;40.66;101574.97;4987152;28;117234;-76
2022/07/29 00:42:16;;;;;;;3.17;1.33;;;;;;;21.72;40.84;101576.91;4983621;28;123799;-76
2022/07/29 00:44:43;;;;;;;3.05;1.10;;;;;;;21.72;40.73;101571.53;4970271;28;123836;-76
2022/07/29 00:47:12;;;;;;;2.33;1.10;;;;;;;21.71;41.01;101575.19;4985622;28;120044;-76
2022/07/29 00:49:40;;;;;;;2.03;1.17;;;;;;;21.70;41.29;101570.75;4984328;28;119284;-76
2022/07/29 00:52:09;;;;;;;2.10;1.10;;;;;;;21.68;41.54;101570.91;4987241;28;123723;-76
2022/07/29 00:54:39;;;;;;;2.60;1.98;;;;;;;21.67;42.00;101568.34;4987654;28;124821;-75
2022/07/29 00:57:11;;;;;;;4.32;1.50;;;;;;;21.64;42.06;101576.66;4970790;28;119385;-75
2022/07/29 00:59:38;;;;;;;2.28;1.20;;;;;;;21.56;42.07;101572.75;4970129;28;118103;-75
2022/07/29 01:02:06;;;;;;;4.32;1.40;;;;;;;21.49;42.39;101576.94;4970297;28;124575;-75
2022/07/29 01:04:33;;;;;;;4.18;1.40;;;;;;;21.44;42.57;101579.13;4968774;28;123775;-75
2022/07/29 01:07:01;;;;;;;5.22;1.52;;;;;;;21.42;42.96;101591.84;4985033;28;120614;-75
2022/07/29 01:09:31;;;;;;;2.13;1.40;;;;;;;21.40;43.62;101588.41;4969353;28;118731;-75
2022/07/29 01:12:17;;;;;;;5.53;1.85;;;;;;;21.38;43.75;101590.38;4967882;28;124855;-75
2022/07/29 01:14:46;;;;;;;2.30;1.50;;;;;;;21.35;43.90;101595.97;4984804;28;123215;-75
2022/07/29 01:17:33;;;;;;;4.80;1.60;;;;;;;21.32;44.16;101596.22;4969463;28;118283;-75
2022/07/29 01:20:17;;;;;;;3.80;1.55;;;;;;;21.27;44.46;101598.44;4968336;28;118571;-75
2022/07/29 01:23:20;;;;;;;4.22;1.50;;;;;;;21.17;44.31;101599.16;4981122;28;124905;-75
2022/07/29 01:26:09;;;;;;;4.00;1.80;;;;;;;21.05;44.83;101599.25;4987453;28;123768;-75
2022/07/29 01:29:11;;;;;;;3.13;1.67;;;;;;;20.85;44.88;101612.41;4982424;28;119403;-75
2022/07/29 01:31:44;;;;;;;4.15;1.95;;;;;;;20.74;45.99;101632.06;4986670;28;121091;-76
2022/07/29 01:34:44;;;;;;;5.07;2.28;;;;;;;20.68;46.05;101643.31;4985181;28;128356;-75
2022/07/29 01:37:50;;;;;;;4.43;1.92;;;;;;;20.62;46.31;101638.38;4967747;28;123882;-75
2022/07/29 01:40:35;;;;;;;4.82;2.13;;;;;;;20.55;46.62;101639.75;4966702;28;119076;-75
2022/07/29 01:43:49;;;;;;;3.47;1.90;;;;;;;20.48;46.95;101627.75;4965650;28;119091;-75
2022/07/29 01:46:25;;;;;;;5.53;2.03;;;;;;;20.42;47.36;101624.53;4968887;28;122751;-75
2022/07/29 01:48:57;;;;;;;3.97;2.05;;;;;;;20.38;47.84;101628.44;4967260;28;124115;-75
2022/07/29 01:51:31;;;;;;;5.05;2.03;;;;;;;20.36;48.19;101625.00;4984693;28;119584;-74
2022/07/29 01:54:08;;;;;;;3.20;2.10;;;;;;;20.33;48.14;101614.47;4968656;28;119134;-75
2022/07/29 01:56:37;;;;;;;3.75;1.95;;;;;;;20.31;48.02;101616.41;4965807;28;123340;-75
2022/07/29 01:59:06;;;;;;;3.88;2.28;;;;;;;20.26;48.49;101610.50;4984254;28;124243;-75
2022/07/29 02:01:35;;;;;;;3.47;2.00;;;;;;;20.24;48.58;101599.00;4981234;28;120362;-75
2022/07/29 02:04:05;;;;;;;4.10;2.50;;;;;;;20.19;48.87;101601.16;4967357;28;118902;-75
2022/07/29 02:06:35;;;;;;;5.13;2.10;;;;;;;20.15;48.99;101588.91;4986245;28;124420;-75
2022/07/29 02:09:04;;;;;;;8.20;2.60;;;;;;;20.08;49.53;101582.25;4966764;28;124035;-75
2022/07/29 02:11:36;;;;;;;3.80;1.98;;;;;;;19.99;49.60;101571.22;4982391;28;119646;-75
2022/07/29 02:14:05;;;;;;;4.32;2.50;;;;;;;19.93;49.96;101547.47;4967245;28;118760;-75
2022/07/29 02:16:35;;;;;;;4.35;2.55;;;;;;;19.86;49.98;101546.19;4986060;28;123921;-75
2022/07/29 02:19:06;;;;;;;5.43;2.90;;;;;;;19.76;50.18;101534.38;4980391;28;124122;-75
2022/07/29 02:21:35;;;;;;;5.38;2.58;;;;;;;19.65;50.38;101538.69;4968348;28;118776;-75
2022/07/29 02:24:04;;;;;;;4.15;2.60;;;;;;;19.54;50.65;101530.56;4984359;28;118042;-75
2022/07/29 02:26:33;;;;;;;6.68;2.97;;;;;;;19.46;51.02;101522.19;4968676;28;123709;-75
2022/07/29 02:29:01;;;;;;;5.38;2.65;;;;;;;19.38;51.26;101524.56;4986014;28;123080;-74
2022/07/29 02:31:34;;;;;;;3.63;2.60;;;;;;;19.28;51.45;101515.44;4985457;28;118545;-75
2022/07/29 02:34:05;;;;;;;5.10;2.70;;;;;;;19.21;51.63;101515.88;4947838;28;118368;-75
2022/07/29 02:36:33;;;;;;;3.85;2.70;;;;;;;19.18;51.73;101518.78;4966057;28;124854;-75
2022/07/29 02:39:02;;;;;;;5.75;3.00;;;;;;;19.16;52.01;101515.34;4963987;28;123667;-76
2022/07/29 02:41:35;;;;;;;3.85;2.42;;;;;;;19.14;52.04;101501.16;4968597;28;118109;-75
2022/07/29 02:44:11;;;;;;;5.25;2.85;;;;;;;19.10;52.12;101499.69;4984672;28;118797;-76
2022/07/29 02:46:50;;;;;;;5.07;2.20;;;;;;;19.06;52.36;101500.84;4951941;28;124071;-76
2022/07/29 02:49:39;;;;;;;4.32;2.60;;;;;;;19.04;52.41;101500.09;4980951;28;125448;-76
2022/07/29 02:52:18;;;;;;;5.38;2.60;;;;;;;18.99;52.16;101486.16;4964800;28;120053;-76
2022/07/29 02:55:14;;;;;;;2.95;2.30;;;;;;;18.96;52.07;101486.34;4983064;28;119958;-75
2022/07/29 02:57:46;;;;;;;4.13;2.45;;;;;;;18.92;52.10;101479.47;4962396;28;123835;-76
2022/07/29 03:00:26;;;;;;;2.92;2.20;;;;;;;18.89;52.60;101479.69;4965252;28;124399;-76
2022/07/29 03:02:56;;;;;;;3.50;2.30;;;;;;;18.86;52.61;101478.94;4982957;28;119095;-75
2022/07/29 03:05:23;;;;;;;3.88;2.25;;;;;;;18.84;52.75;101472.81;4982510;28;119524;-75
2022/07/29 03:08:05;;;;;;;5.97;2.35;;;;;;;18.81;52.84;101467.66;4985151;28;123819;-74
2022/07/29 03:10:33;;;;;;;3.70;2.30;;;;;;;18.80;52.90;101492.78;4966875;28;123089;-75
2022/07/29 03:13:01;;;;;;;5.35;2.70;;;;;;;18.79;52.90;101496.41;4986059;28;119798;-75
2022/07/29 03:15:29;;;;;;;3.00;2.33;;;;;;;18.80;53.01;101497.28;4984381;28;118616;-75
2022/07/29 03:17:57;;;;;;;4.00;2.38;;;;;;;18.81;53.03;101494.50;4985341;28;124753;-75
2022/07/29 03:20:25;;;;;;;3.35;2.63;;;;;;;18.83;53.08;101492.56;4985588;28;124437;-76
2022/07/29 03:22:52;;;;;;;4.82;2.63;;;;;;;18.84;53.26;101488.94;4966619;28;118156;-76
2022/07/29 03:25:19;;;;;;;6.40;2.80;;;;;;;18.84;53.22;101494.28;4968625;28;118519;-76
2022/07/29 03:27:48;;;;;;;3.47;2.70;;;;;;;18.85;53.09;101485.28;4977969;28;123351;-76
2022/07/29 03:30:15;;;;;;;4.18;2.25;;;;;;;18.84;53.16;101491.63;4965825;28;122078;-76
2022/07/29 03:32:50;;;;;;;3.75;2.40;;;;;;;18.82;53.14;101490.88;4978941;28;117171;-76
2022/07/29 03:35:19;;;;;;;3.67;2.72;;;;;;;18.80;53.43;101495.47;4983406;28;118535;-77
2022/07/29 03:37:46;;;;;;;4.18;2.60;;;;;;;18.79;53.41;101491.03;4995635;28;124077;-76
2022/07/29 03:40:19;;;;;;;4.35;2.75;;;;;;;18.79;53.61;101485.66;4980215;28;122903;-76
2022/07/29 03:42:49;;;;;;;4.63;2.78;;;;;;;18.80;53.66;101484.75;5000633;28;120365;-76
2022/07/29 03:45:18;;;;;;;3.92;2.60;;;;;;;18.80;53.63;101498.16;4976348;28;117765;-77
2022/07/29 03:47:50;;;;;;;5.70;2.90;;;;;;;18.82;53.74;101501.59;4985551;28;124383;-77
2022/07/29 03:50:23;;;;;;;4.53;2.50;;;;;;;18.83;53.43;101502.44;4966765;28;124020;-76
2022/07/29 03:52:51;;;;;;;3.63;2.70;;;;;;;18.79;53.71;101491.03;4983413;28;119645;-76
2022/07/29 03:55:18;;;;;;;3.97;2.70;;;;;;;18.79;53.68;101506.28;4986641;28;118135;-76
2022/07/29 03:57:47;;;;;;;5.47;3.00;;;;;;;18.79;53.71;101514.34;4968511;28;124479;-77
2022/07/29 04:00:15;;;;;;;5.00;3.00;;;;;;;18.80;53.75;101514.28;4969830;28;124222;-77
2022/07/29 04:02:47;;;;;;;4.90;2.85;;;;;;;18.80;53.71;101514.28;4948989;28;119258;-75
2022/07/29 04:05:16;;;;;;;8.07;3.38;;;;;;;18.80;53.56;101514.28;4970014;28;119642;-76
2022/07/29 04:07:44;;;;;;;4.35;3.22;;;;;;;18.78;53.47;101508.13;4966193;28;123190;-75
2022/07/29 04:10:12;;;;;;;4.28;3.10;;;;;;;18.77;53.68;101514.44;4970929;28;123574;-76
2022/07/29 04:12:39;;;;;;;5.00;3.30;;;;;;;18.76;53.70;101512.72;4988692;28;119120;-76
2022/07/29 04:15:06;;;;;;;6.90;3.40;;;;;;;18.77;53.75;101505.53;4968374;28;118625;-76
2022/07/29 04:17:33;;;;;;;4.50;3.13;;;;;;;18.75;54.03;101505.63;4988328;28;124166;-75
2022/07/29 04:20:00;;;;;;;5.00;3.05;;;;;;;18.75;53.93;101502.94;4970369;28;123299;-75
2022/07/29 04:22:28;;;;;;;4.55;3.60;;;;;;;18.75;54.08;101505.63;4969883;28;119259;-75
2022/07/29 04:24:55;;;;;;;6.03;3.78;;;;;;;18.74;54.00;101509.31;4954623;28;118188;-75
2022/07/29 04:27:29;;;;;;;6.82;3.60;;;;;;;18.72;53.97;101505.84;4987431;28;124513;-76
2022/07/29 04:29:56;;;;;;;4.95;3.58;;;;;;;18.70;54.25;101513.13;4973490;28;124516;-76
2022/07/29 04:32:24;;;;;;;4.47;3.30;;;;;;;18.67;54.36;101513.38;4983244;28;119625;-75
2022/07/29 04:34:51;;;;;;;6.50;3.40;;;;;;;18.67;54.32;101518.72;5013618;28;119461;-76
2022/07/29 04:37:18;;;;;;;5.85;3.67;;;;;;;18.66;54.62;101527.72;5006464;28;124765;-76
2022/07/29 04:39:45;;;;;;;5.72;3.63;;;;;;;18.70;54.57;101523.88;4981324;28;124099;-76
2022/07/29 04:42:12;;;;;;;4.28;3.60;;;;;;;18.73;54.56;101518.31;4996819;28;119894;-76
2022/07/29 04:44:39;;;;;;;7.03;4.00;;;;;;;18.74;54.61;101525.41;4993863;28;118035;-76
2022/07/29 04:47:09;;;;;;;6.95;3.92;;;;;;;18.74;54.53;101530.78;4958317;28;123196;-76
2022/07/29 04:49:39;;;;;;;11.18;4.00;;;;;;;18.71;54.74;101530.97;4992390;28;124001;-77
2022/07/29 04:52:06;;;;;;;4.57;3.72;;;;;;;18.67;54.71;101534.84;4971952;28;117996;-77
2022/07/29 04:54:33;;;;;;;5.75;3.67;;;;;;;18.64;55.01;101529.66;4969391;28;117981;-76
2022/07/29 04:57:00;;;;;;;8.45;4.63;;;;;;;18.60;54.98;101534.38;4968717;28;123878;-76
2022/07/29 04:59:27;;;;;;;6.63;4.43;;;;;;;18.57;55.19;101525.66;4985643;28;125177;-76
2022/07/29 05:01:54;;;;;;;6.38;4.22;;;;;;;18.54;55.08;101528.59;4987147;28;119864;-76
2022/07/29 05:04:22;;;;;;;6.30;4.47;;;;;;;18.54;55.26;101544.69;4968599;28;118354;-76
2022/07/29 05:06:49;;;;;;;5.53;4.07;;;;;;;18.54;55.36;101542.00;4986343;28;123827;-76
2022/07/29 05:09:17;;;;;;;7.32;4.43;;;;;;;18.55;55.31;101547.22;4987481;28;123601;-76
2022/07/29 05:11:44;;;;;;;4.63;3.83;;;;;;;18.57;55.44;101549.81;4985827;28;119578;-76
2022/07/29 05:14:11;;;;;;;7.40;4.50;;;;;;;18.59;55.41;101553.25;4987966;28;119236;-76
2022/07/29 05:16:39;;;;;;;6.82;4.80;;;;;;;18.63;55.30;101554.78;4982585;28;123923;-76
2022/07/29 05:19:07;;;;;;;5.18;4.15;;;;;;;18.66;55.48;101550.03;4986114;28;123653;-76
2022/07/29 05:21:40;;;;;;;6.93;4.30;;;;;;;18.70;55.37;101550.69;4982640;28;120059;-77
2022/07/29 05:24:07;;;;;;;7.75;4.40;;;;;;;18.72;55.24;101543.41;4987215;28;119705;-76
2022/07/29 05:26:34;;;;;;;5.93;4.40;;;;;;;18.75;55.14;101537.84;4953562;28;123884;-76
2022/07/29 05:29:02;;;;;;;6.20;4.35;;;;;;;18.75;55.28;101532.47;4968919;28;123573;-77
2022/07/29 05:31:29;;;;;;;5.75;4.68;;;;;;;18.74;55.39;101529.88;4987749;28;119503;-74
2022/07/29 05:33:56;;;;;;;7.50;4.25;;;;;;;18.73;55.47;101544.28;4966503;28;120174;-76
2022/07/29 05:36:23;;;;;;;6.35;4.05;;;;;;;18.73;55.66;101550.50;4983503;28;124045;-75
2022/07/29 05:38:51;;;;;;;7.20;4.03;;;;;;;18.75;55.60;101553.94;4969396;28;123010;-76
2022/07/29 05:41:19;;;;;;;5.80;3.67;;;;;;;18.76;55.76;101554.78;4987638;28;119601;-76
2022/07/29 05:43:46;;;;;;;7.20;4.00;;;;;;;18.78;55.83;101556.44;4986054;28;118871;-76
2022/07/29 05:46:16;;;;;;;6.18;4.03;;;;;;;18.80;55.57;101546.47;4983993;28;123111;-75
2022/07/29 05:48:43;;;;;;;5.13;3.95;;;;;;;18.82;55.56;101549.91;4967459;28;124862;-76
2022/07/29 05:51:10;;;;;;;4.65;3.97;;;;;;;18.82;55.70;101544.53;4987866;28;119447;-76
2022/07/29 05:53:37;;;;;;;6.38;4.00;;;;;;;18.84;55.73;101547.97;4986094;28;119284;-76
2022/07/29 05:56:05;;;;;;;5.47;4.00;;;;;;;18.86;55.84;101546.03;4984853;28;124127;-76
2022/07/29 05:58:32;;;;;;;5.55;3.75;;;;;;;18.89;55.67;101544.09;4968896;28;123677;-76
2022/07/29 06:01:00;;;;;;;6.32;4.22;;;;;;;18.91;55.86;101542.19;4969218;28;118366;-76
2022/07/29 06:03:28;;;;;;;6.85;4.03;;;;;;;18.94;55.38;101552.72;4986536;28;118775;-76
2022/07/29 06:05:55;;;;;;;6.35;4.10;;;;;;;18.96;55.76;101550.78;4968749;28;123163;-76
2022/07/29 06:08:22;;;;;;;6.40;4.30;;;;;;;19.00;55.83;101557.66;4968993;28;123214;-76
2022/07/29 06:10:49;;;;;;;6.53;3.88;;;;;;;19.04;55.70;101561.84;4968630;28;119708;-76
2022/07/29 06:13:16;;;;;;;6.15;4.13;;;;;;;19.07;55.72;101558.94;4969103;28;119112;-76
2022/07/29 06:15:43;;;;;;;5.95;3.92;;;;;;;19.08;55.53;101555.31;4983231;28;123411;-75
2022/07/29 06:18:13;;;;;;;6.25;4.00;;;;;;;19.08;55.57;101555.31;4966418;28;124865;-75
2022/07/29 06:20:40;;;;;;;7.47;4.32;;;;;;;19.09;55.43;101562.38;4985144;28;118473;-75
2022/07/29 06:23:07;;;;;;;6.68;4.43;;;;;;;19.09;55.46;101557.00;4993141;28;119042;-75
2022/07/29 06:25:36;;;;;;;6.18;4.10;;;;;;;19.10;55.42;101553.38;5006360;28;124386;-74
2022/07/29 06:28:03;;;;;;;6.72;4.47;;;;;;;19.11;55.49;101549.72;5012491;28;123310;-75
2022/07/29 06:30:30;;;;;;;6.88;4.25;;;;;;;19.11;55.31;101549.72;4992641;28;120039;-75
2022/07/29 06:32:58;;;;;;;6.50;4.40;;;;;;;19.12;55.49;101555.94;4996609;28;118294;-75
2022/07/29 06:35:25;;;;;;;5.93;3.92;;;;;;;19.12;55.43;101567.56;4968652;28;124006;-75
2022/07/29 06:38:07;;;;;;;7.15;4.00;;;;;;;19.13;55.49;101558.50;4982491;28;124519;-75
2022/07/29 06:41:00;;;;;;;7.05;4.07;;;;;;;19.16;55.50;101577.09;4968359;28;118362;-75
2022/07/29 06:43:40;;;;;;;7.50;4.10;;;;;;;19.19;55.26;101573.34;4966293;28;118265;-75
2022/07/29 06:46:21;;;;;;;5.75;4.05;;;;;;;19.22;55.46;101574.00;4982727;28;123087;-75
2022/07/29 06:48:50;;;;;;;5.72;3.67;;;;;;;19.23;55.12;101567.66;4952391;28;123040;-76
2022/07/29 06:51:19;;;;;;;7.55;3.92;;;;;;;19.24;55.20;101566.69;4968205;28;120007;-75
2022/07/29 06:53:50;;;;;;;5.82;4.05;;;;;;;19.24;55.30;101561.31;4965677;28;118792;-75
2022/07/29 06:56:31;;;;;;;6.47;3.85;;;;;;;19.28;55.24;101555.72;4983344;28;123821;-75
2022/07/29 06:59:05;;;;;;;5.93;4.00;;;;;;;19.28;55.20;101566.47;4966480;28;123624;-75
2022/07/29 07:01:32;;;;;;;7.03;3.97;;;;;;;19.28;55.12;101563.78;4968301;28;119641;-77
2022/07/29 07:03:59;;;;;;;5.88;4.07;;;;;;;19.28;55.37;101558.41;4986376;28;120887;-75
2022/07/29 07:06:27;;;;;;;6.45;4.18;;;;;;;19.28;55.24;101558.41;4967742;28;123668;-75
2022/07/29 07:08:54;;;;;;;5.25;4.07;;;;;;;19.28;55.17;101555.72;4967555;28;123154;-75
2022/07/29 07:11:21;;;;;;;6.07;3.95;;;;;;;19.27;55.28;101552.19;4983744;28;119730;-75
2022/07/29 07:13:48;;;;;;;5.95;4.35;;;;;;;19.30;55.54;101564.53;4967872;28;119596;-75
2022/07/29 07:16:15;;;;;;;6.03;3.72;;;;;;;19.33;55.54;101569.72;4986275;28;124347;-75
2022/07/29 07:18:44;;;;;;;9.80;4.90;;;;;;;19.36;55.44;101574.84;4983963;28;124129;-75
2022/07/29 07:21:12;;;;;;;7.43;4.65;;;;;;;19.38;55.45;101562.16;4967106;28;119141;-75
2022/07/29 07:23:46;;;;;;;5.80;4.35;;;;;;;19.38;55.23;101557.66;4965869;28;118282;-74
2022/07/29 07:26:13;;;;;;;7.05;4.25;;;;;;;19.39;55.32;101563.88;4964559;28;123429;-74
2022/07/29 07:28:40;;;;;;;6.25;4.47;;;;;;;19.41;55.40;101578.06;4984827;28;124327;-75
2022/07/29 07:31:07;;;;;;;8.82;4.13;;;;;;;19.42;55.19;101585.16;4980719;28;120021;-75
2022/07/29 07:33:34;;;;;;;5.30;4.22;;;;;;;19.45;55.31;101588.47;4984764;28;119050;-75
2022/07/29 07:36:02;;;;;;;6.47;4.13;;;;;;;19.49;55.42;101583.75;4966490;28;122946;-74
2022/07/29 07:38:29;;;;;;;6.32;4.25;;;;;;;19.52;55.35;101575.47;4983412;28;124180;-74
2022/07/29 07:40:56;;;;;;;6.55;4.40;;;;;;;19.55;55.33;101583.34;4983072;28;119897;-74
2022/07/29 07:43:23;;;;;;;5.22;4.03;;;;;;;19.58;55.26;101579.56;4981557;28;119551;-74
2022/07/29 07:45:50;;;;;;;5.65;4.05;;;;;;;19.62;55.00;101587.28;4963832;28;123120;-74
2022/07/29 07:48:17;;;;;;;6.88;4.00;;;;;;;19.66;54.99;101598.66;4982676;28;123827;-75
2022/07/29 07:50:44;;;;;;;5.63;3.78;;;;;;;19.71;55.06;101606.41;4983716;28;119057;-75
2022/07/29 07:53:12;;;;;;;5.97;4.53;;;;;;;19.77;55.39;101611.38;4966815;28;119706;-75
2022/07/29 07:55:42;;;;;;;5.10;4.00;;;;;;;19.85;55.32;101603.63;4984508;28;124748;-75
2022/07/29 07:58:29;;;;;;;7.35;3.63;;;;;;;19.92;54.69;101593.28;4962401;28;124142;-74
2022/07/29 08:00:56;;;;;;;4.90;3.65;;;;;;;19.96;54.50;101584.03;4968451;28;119353;-74
2022/07/29 08:03:24;;;;;;;7.63;4.22;;;;;;;19.98;54.68;101576.69;4936843;28;118210;-75
2022/07/29 08:05:51;;;;;;;6.07;4.03;;;;;;;20.03;54.67;101586.16;4980560;28;123321;-74
2022/07/29 08:08:18;;;;;;;4.80;3.70;;;;;;;20.09;54.64;101584.00;4966602;28;123422;-75
2022/07/29 08:10:51;;;;;;;4.57;3.65;;;;;;;20.16;54.78;101585.25;4967491;28;119049;-75
2022/07/29 08:13:26;;;;;;;4.10;3.17;;;;;;;20.20;54.38;101592.13;4984195;28;117939;-75
2022/07/29 08:16:11;;;;;;;;;;;;;;;20.21;53.86;101583.06;4951352;28;123367;-74
2022/07/29 08:18:40;;;;;;;6.57;3.63;;;;;;;20.28;54.12;101589.72;4965676;28;124342;-75
2022/07/29 08:21:07;;;;;;;7.00;3.67;;;;;;;20.33;53.96;101587.56;4986715;28;118744;-75
2022/07/29 08:23:38;;;;;;;5.35;3.65;;;;;;;20.38;54.13;101596.16;4986936;28;119165;-75
2022/07/29 08:26:15;;;;;;;6.40;4.20;;;;;;;20.48;54.21;101600.84;4986456;28;124110;-75
2022/07/29 08:28:45;;;;;;;6.53;4.07;;;;;;;20.55;54.03;101594.00;4968130;28;124556;-75
2022/07/29 08:31:13;;;;;;;7.10;3.72;;;;;;;20.65;53.97;101596.91;4969185;28;119335;-75
2022/07/29 08:33:41;;;;;;;6.43;4.10;;;;;;;20.73;53.86;101606.09;4966481;28;117401;-76
2022/07/29 08:36:08;;;;;;;4.70;3.55;;;;;;;20.86;53.97;101610.56;4985430;28;123850;-75
2022/07/29 08:38:35;;;;;;;5.15;3.72;;;;;;;21.04;54.32;101609.16;4986117;28;124189;-74
2022/07/29 08:41:02;;;;;;;5.32;3.40;;;;;;;21.23;54.31;101599.63;4988471;28;120146;-75
2022/07/29 08:43:30;;;;;;;5.50;3.33;;;;;;;21.41;53.67;101600.88;4984189;28;120678;-75
2022/07/29 08:45:57;;;;;;;4.63;3.28;;;;;;;21.58;53.38;101608.50;4985994;28;123814;-75
2022/07/29 08:48:24;;;;;;;5.57;3.47;;;;;;;21.78;53.15;101611.47;4971028;28;122703;-75
2022/07/29 08:50:56;;;;;;;4.97;3.10;;;;;;;21.96;52.49;101612.69;4985169;28;119082;-77
2022/07/29 08:53:26;;;;;;;7.05;3.90;;;;;;;22.13;51.88;101615.84;4967841;28;118090;-75
2022/07/29 08:55:54;;;;;;;6.43;3.50;;;;;;;22.27;52.05;101615.59;4988330;28;125222;-76
2022/07/29 08:58:23;;;;;;;7.00;3.28;;;;;;;22.44;51.69;101610.66;4953947;28;124278;-75
2022/07/29 09:00:53;;;;;;;5.78;3.17;;;;;;;22.62;51.36;101614.53;4988568;28;119018;-75
2022/07/29 09:03:29;;;;;;;6.10;3.58;;;;;;;22.78;50.94;101613.22;4987363;28;119007;-75
2022/07/29 09:05:58;;;;;;;5.35;3.33;;;;;;;22.86;50.38;101610.72;4968532;28;124293;-75
2022/07/29 09:08:25;;;;;;;5.18;3.42;;;;;;;22.95;50.61;101609.94;4953432;28;123303;-75
2022/07/29 09:10:53;;;;;;;6.25;3.38;;;;;;;23.07;50.76;101608.91;4988678;28;119223;-75
2022/07/29 09:13:20;;;;;;;7.25;3.67;;;;;;;23.20;50.55;101607.84;4988858;28;119199;-75
2022/07/29 09:15:48;;;;;;;4.78;3.47;;;;;;;23.32;49.75;101607.66;4986554;28;124080;-75
2022/07/29 09:18:34;;;;;;;6.97;3.67;;;;;;;23.37;49.67;101609.94;4970181;28;124845;-75
2022/07/29 09:24:15;;;;;;;4.97;3.78;;;;;;;23.49;49.34;101603.47;4981382;28;119292;-74
2022/07/29 09:26:44;;;;;;;6.15;3.85;;;;;;;23.58;49.45;101606.34;4963981;28;124889;-75
2022/07/29 09:29:17;;;;;;;6.05;3.92;;;;;;;23.68;49.60;101604.56;4984459;28;124566;-75
2022/07/29 09:31:47;;;;;;;6.20;3.85;;;;;;;23.81;49.45;101602.50;4984341;28;120170;-75
2022/07/29 09:34:20;;;;;;;4.93;3.30;;;;;;;23.95;49.24;101600.41;4973149;28;120925;-75
2022/07/29 09:36:49;;;;;;;6.32;3.72;;;;;;;24.05;48.79;101603.97;4986968;28;123891;-75
2022/07/29 09:39:32;;;;;;;5.85;3.75;;;;;;;24.16;48.62;101606.56;4995927;28;123762;-75
2022/07/29 09:42:02;;;;;;;8.60;3.65;;;;;;;24.28;48.44;101605.47;4987472;28;119177;-76
2022/07/29 09:44:48;;;;;;;6.78;3.40;;;;;;;24.38;48.04;101610.88;4985635;28;120706;-75
2022/07/29 09:47:16;;;;;;;6.97;3.78;;;;;;;24.47;47.91;101612.75;4971190;28;124269;-75
2022/07/29 09:49:58;;;;;;;4.95;3.58;;;;;;;24.59;47.98;101607.22;4951969;28;122220;-75
2022/07/29 09:52:48;;;;;;;6.55;3.70;;;;;;;24.72;47.41;101606.94;4983591;28;119284;-76
2022/07/29 09:55:17;;;;;;;6.05;3.50;;;;;;;24.78;47.50;101607.22;4964354;28;117560;-75
2022/07/29 09:57:46;;;;;;;5.50;3.17;;;;;;;24.90;46.93;101610.63;4961628;28;123512;-75
2022/07/29 10:00:17;;;;;;;5.47;3.20;;;;;;;25.02;46.93;101614.91;4981139;28;123644;-75
2022/07/29 10:02:46;;;;;;;4.18;3.25;;;;;;;25.15;47.18;101611.03;4945947;28;117369;-73
2022/07/29 10:05:31;;;;;;;4.63;3.10;;;;;;;25.29;46.59;101610.59;4984550;28;119209;-73
2022/07/29 10:08:03;;;;;;;7.35;3.50;;;;;;;25.38;45.89;101604.28;4981383;28;124153;-73
2022/07/29 10:10:33;;;;;;;5.50;3.20;;;;;;;25.45;45.36;101605.41;4969525;28;124578;-73
2022/07/29 10:13:02;;;;;;;5.32;3.58;;;;;;;25.51;45.07;101606.69;4968640;28;119140;-74
2022/07/29 10:15:40;;;;;;;4.45;3.15;;;;;;;25.56;45.29;101606.22;4984792;28;119665;-73
2022/07/29 10:18:09;;;;;;;5.22;3.28;;;;;;;25.65;45.19;101605.31;4984223;28;124030;-73
2022/07/29 10:20:37;;;;;;;5.45;3.28;;;;;;;25.77;44.82;101604.16;4968315;28;123663;-73
2022/07/29 10:23:05;;;;;;;5.78;3.50;;;;;;;25.88;44.56;101604.94;4985667;28;120506;-73
2022/07/29 10:25:32;;;;;;;4.90;3.33;;;;;;;25.96;44.50;101602.38;4984091;28;119677;-74
2022/07/29 10:27:59;;;;;;;4.70;3.53;;;;;;;26.04;45.17;101602.47;4984884;28;123797;-73
2022/07/29 10:30:27;;;;;;;5.72;3.50;;;;;;;26.15;44.92;101595.97;4968795;28;124185;-74
2022/07/29 10:33:38;;;;;;;4.32;2.70;;;;;;;26.26;44.99;101586.72;4967787;28;118768;-71
2022/07/29 10:36:23;;;;;;;5.80;2.83;;;;;;;26.39;44.45;101587.19;4977554;28;118855;-71
2022/07/29 10:39:24;;;;;;;5.35;3.28;;;;;;;26.53;44.34;101592.09;4979449;28;124735;-72
2022/07/29 10:42:03;;;;;;;4.35;3.25;;;;;;;26.64;44.22;101596.47;4984563;28;123413;-72
2022/07/29 10:44:33;;;;;;;6.18;2.88;;;;;;;26.75;43.85;101581.81;4984893;28;118691;-72
2022/07/29 10:47:00;;;;;;;4.88;3.05;;;;;;;26.82;43.60;101582.84;4981241;28;119002;-72
2022/07/29 10:49:29;;;;;;;4.35;2.97;;;;;;;26.92;43.20;101589.06;4983855;28;124322;-72
2022/07/29 10:52:05;;;;;;;4.90;2.80;;;;;;;26.99;42.93;101590.16;4960155;28;124933;-72
2022/07/29 10:54:35;;;;;;;3.53;2.50;;;;;;;27.07;42.42;101585.75;4985719;28;119423;-72
2022/07/29 10:57:22;;;;;;;4.50;2.95;;;;;;;27.16;43.20;101579.38;4985319;28;119360;-72
2022/07/29 11:00:26;;;;;;;5.03;2.67;;;;;;;27.26;42.32;101585.59;4978068;28;124245;-72
2022/07/29 11:02:55;;;;;;;5.17;2.70;;;;;;;27.28;41.60;101583.56;4964323;28;124551;-72
2022/07/29 11:05:24;;;;;;;4.18;2.50;;;;;;;27.32;41.41;101595.81;4984848;28;118572;-72
2022/07/29 11:08:13;;;;;;;5.97;3.00;;;;;;;27.34;41.99;101588.34;4967500;28;118724;-72
2022/07/29 11:10:48;;;;;;;4.00;2.47;;;;;;;27.40;41.17;101586.00;4986314;28;123873;-73
2022/07/29 11:13:51;;;;;;;4.72;2.92;;;;;;;27.43;41.58;101580.25;4985319;28;123540;-74
2022/07/29 11:16:21;;;;;;;4.85;3.30;;;;;;;27.52;40.64;101592.88;4904647;28;120890;-74
2022/07/29 11:19:10;;;;;;;4.38;3.15;;;;;;;27.50;40.32;101592.19;4967629;28;119765;-73
2022/07/29 11:21:46;;;;;;;4.53;2.70;;;;;;;27.48;40.14;101595.09;4983108;28;124189;-74
2022/07/29 11:24:31;;;;;;;4.97;2.83;;;;;;;27.51;40.36;101583.00;4952294;28;121716;-74
2022/07/29 11:27:20;;;;;;;5.38;2.80;;;;;;;27.56;40.68;101591.56;4982683;28;118407;-74
2022/07/29 11:29:56;;;;;;;3.60;2.65;;;;;;;27.63;41.22;101587.13;4966506;28;118823;-73
2022/07/29 11:32:34;;;;;;;4.25;2.80;;;;;;;27.76;40.69;101584.84;4980592;28;123865;-72
2022/07/29 11:35:14;;;;;;;4.57;2.83;;;;;;;27.91;40.65;101589.66;4984117;28;123709;-72
2022/07/29 11:37:46;;;;;;;6.57;3.05;;;;;;;28.03;40.38;101582.91;4982923;28;120205;-73
2022/07/29 11:40:23;;;;;;;6.28;2.67;;;;;;;28.14;40.25;101585.31;4984364;28;117944;-73
2022/07/29 11:42:51;;;;;;;3.38;2.67;;;;;;;28.22;40.02;101580.88;4968870;28;123229;-73